Time;durP1;ratioP1;P1;durP2;ratioP2;P2;SDS_P1;SDS_P2;PMS_P1;PMS_P2;Temp;Humidity;BMP_temperature;BMP_pressure;BME280_temperature;BME280_humidity;BME280_pressure;Samples;Min_cycle;Max_cycle;Signal;HPM_P1;HPM_P2
2023/09/28 00:00:46;;;;;;;22.05;12.07;;;;;;;;;;10535173;28;20788;-80
2023/09/28 00:05:51;;;;;;;20.13;12.17;;;;;;;;;;10528830;28;20915;-79
2023/09/28 00:11:00;;;;;;;23.48;12.98;;;;;;;;;;10528037;28;20471;-81
2023/09/28 00:16:14;;;;;;;23.63;12.37;;;;;;;;;;10525028;28;20417;-80
2023/09/28 00:27:11;;;;;;;23.00;12.60;;;;;;;;;;10513444;28;20982;-80
2023/09/28 00:32:18;;;;;;;21.97;12.47;;;;;;;;;;10517568;28;20512;-79
2023/09/28 00:37:32;;;;;;;25.03;12.23;;;;;;;;;;10529535;28;20422;-80
2023/09/28 00:42:38;;;;;;;22.63;12.82;;;;;;;;;;10514126;28;20492;-79
2023/09/28 00:47:45;;;;;;;22.67;12.40;;;;;;;;;;10506487;28;20420;-80
2023/09/28 00:52:58;;;;;;;22.17;12.82;;;;;;;;;;10524275;28;20430;-80
2023/09/28 00:58:28;;;;;;;25.70;12.77;;;;;;;;;;10524242;28;20429;-79
2023/09/28 01:03:39;;;;;;;22.58;12.68;;;;;;;;;;10530473;28;20429;-78
2023/09/28 01:08:47;;;;;;;25.48;12.68;;;;;;;;;;10510071;28;20426;-78
2023/09/28 01:13:52;;;;;;;21.90;12.65;;;;;;;;;;10528061;28;20741;-80
2023/09/28 01:19:04;;;;;;;22.13;12.33;;;;;;;;;;10527733;28;20476;-81
2023/09/28 01:24:15;;;;;;;25.43;12.83;;;;;;;;;;10521768;28;20430;-81
2023/09/28 01:34:54;;;;;;;21.20;12.30;;;;;;;;;;10523352;28;20428;-80
2023/09/28 01:40:15;;;;;;;20.00;10.80;;;;;;;;;;10527375;28;20514;-81
2023/09/28 01:45:22;;;;;;;20.25;11.35;;;;;;;;;;10505556;28;20429;-81
2023/09/28 01:55:50;;;;;;;21.58;11.73;;;;;;;;;;10524569;28;20496;-79
2023/09/28 02:01:13;;;;;;;23.35;12.13;;;;;;;;;;10525191;28;20572;-78
2023/09/28 02:06:22;;;;;;;18.90;10.90;;;;;;;;;;10520434;28;20470;-80
2023/09/28 02:11:43;;;;;;;21.00;11.70;;;;;;;;;;10519026;28;20451;-80
2023/09/28 02:16:57;;;;;;;22.45;11.55;;;;;;;;;;10523990;28;20855;-77
2023/09/28 02:22:02;;;;;;;19.95;10.80;;;;;;;;;;10500358;28;20430;-79
2023/09/28 02:27:17;;;;;;;19.60;10.90;;;;;;;;;;10521423;28;20442;-79
2023/09/28 02:32:23;;;;;;;18.77;9.60;;;;;;;;;;10536689;28;20786;-79
2023/09/28 02:37:29;;;;;;;18.03;10.53;;;;;;;;;;10518958;28;20487;-80
2023/09/28 02:42:49;;;;;;;18.85;10.65;;;;;;;;;;10538687;28;20431;-80
2023/09/28 02:47:57;;;;;;;19.00;10.20;;;;;;;;;;10528114;28;20431;-79
2023/09/28 02:53:06;;;;;;;19.63;10.70;;;;;;;;;;10533588;28;20420;-79
2023/09/28 02:58:14;;;;;;;18.40;10.70;;;;;;;;;;10529512;28;20428;-78
2023/09/28 03:03:35;;;;;;;18.52;10.35;;;;;;;;;;10520441;28;20418;-79
2023/09/28 03:08:45;;;;;;;16.17;8.90;;;;;;;;;;10537603;28;20433;-79
2023/09/28 03:14:05;;;;;;;15.83;9.83;;;;;;;;;;10511543;28;20972;-79
2023/09/28 03:19:27;;;;;;;16.77;8.98;;;;;;;;;;10532315;28;20445;-79
2023/09/28 03:24:39;;;;;;;15.93;8.77;;;;;;;;;;10533176;28;20413;-79
2023/09/28 03:29:47;;;;;;;15.98;8.80;;;;;;;;;;10514080;28;20425;-79
2023/09/28 03:35:02;;;;;;;15.80;8.75;;;;;;;;;;10529215;28;20441;-79
2023/09/28 03:40:24;;;;;;;17.08;8.25;;;;;;;;;;10520989;28;20782;-79
2023/09/28 03:45:30;;;;;;;14.30;7.60;;;;;;;;;;10534199;28;20425;-79
2023/09/28 03:50:40;;;;;;;16.05;8.48;;;;;;;;;;10493766;28;20485;-80
2023/09/28 03:55:47;;;;;;;16.90;8.50;;;;;;;;;;10491035;28;20423;-79
2023/09/28 04:00:50;;;;;;;13.88;7.63;;;;;;;;;;10470870;28;20481;-77
2023/09/28 04:05:58;;;;;;;13.77;7.70;;;;;;;;;;10477356;28;20925;-79
2023/09/28 04:11:15;;;;;;;13.38;8.25;;;;;;;;;;10482977;28;20422;-78
2023/09/28 04:16:31;;;;;;;13.90;7.83;;;;;;;;;;10482312;28;20427;-81
2023/09/28 04:21:49;;;;;;;13.10;7.10;;;;;;;;;;10487201;28;20839;-79
2023/09/28 04:26:58;;;;;;;13.23;7.65;;;;;;;;;;10480262;28;20421;-79
2023/09/28 04:32:08;;;;;;;12.77;7.78;;;;;;;;;;10486133;28;20419;-79
2023/09/28 04:37:27;;;;;;;12.30;7.45;;;;;;;;;;10462786;28;20463;-80
2023/09/28 04:42:40;;;;;;;13.47;7.47;;;;;;;;;;10468673;28;20510;-79
2023/09/28 04:47:58;;;;;;;13.07;7.57;;;;;;;;;;10489366;28;20419;-79
2023/09/28 04:53:33;;;;;;;12.38;7.22;;;;;;;;;;10476205;28;20542;-80
2023/09/28 04:58:47;;;;;;;11.53;7.20;;;;;;;;;;10486692;28;20443;-82
2023/09/28 05:03:54;;;;;;;12.80;7.60;;;;;;;;;;10482911;28;20862;-81
2023/09/28 05:09:08;;;;;;;17.05;7.20;;;;;;;;;;10477213;28;20451;-81
2023/09/28 05:14:24;;;;;;;13.57;7.32;;;;;;;;;;10482395;28;20496;-80
2023/09/28 05:19:30;;;;;;;13.48;7.10;;;;;;;;;;10480994;28;20530;-79
2023/09/28 05:24:41;;;;;;;12.90;6.65;;;;;;;;;;10484703;28;20530;-79
2023/09/28 05:29:58;;;;;;;12.55;6.88;;;;;;;;;;10474028;28;20435;-81
2023/09/28 05:35:10;;;;;;;11.73;6.60;;;;;;;;;;10480700;28;20435;-81
2023/09/28 05:40:34;;;;;;;13.93;6.68;;;;;;;;;;10458978;28;20433;-80
2023/09/28 05:45:50;;;;;;;11.60;6.28;;;;;;;;;;10482692;28;20435;-79
2023/09/28 05:51:03;;;;;;;11.63;6.27;;;;;;;;;;10457855;28;20555;-79
2023/09/28 05:56:22;;;;;;;12.18;6.25;;;;;;;;;;10483064;28;20431;-79
2023/09/28 06:01:31;;;;;;;12.15;6.10;;;;;;;;;;10483847;28;20438;-80
2023/09/28 06:06:50;;;;;;;11.30;5.30;;;;;;;;;;10465788;28;20521;-80
2023/09/28 06:11:58;;;;;;;10.48;5.22;;;;;;;;;;10476575;28;20427;-81
2023/09/28 06:17:24;;;;;;;11.13;5.47;;;;;;;;;;10498851;28;20511;-80
2023/09/28 06:22:35;;;;;;;11.45;5.65;;;;;;;;;;10474127;28;20415;-80
2023/09/28 06:28:00;;;;;;;11.60;5.22;;;;;;;;;;10479189;28;20424;-80
2023/09/28 06:38:56;;;;;;;11.25;5.35;;;;;;;;;;10476887;28;20522;-80
2023/09/28 06:44:20;;;;;;;10.60;5.25;;;;;;;;;;10468115;28;20518;-80
2023/09/28 06:49:50;;;;;;;12.47;5.30;;;;;;;;;;10522075;28;20806;-80
2023/09/28 06:54:58;;;;;;;13.65;4.90;;;;;;;;;;10515662;28;20569;-81
2023/09/28 07:00:16;;;;;;;8.10;4.67;;;;;;;;;;10520138;28;20453;-81
2023/09/28 07:05:29;;;;;;;11.35;4.40;;;;;;;;;;10523054;28;20418;-81
2023/09/28 07:10:39;;;;;;;10.63;4.20;;;;;;;;;;10524402;28;20483;-81
2023/09/28 07:15:53;;;;;;;9.43;3.97;;;;;;;;;;10507466;28;20425;-80
2023/09/28 07:21:16;;;;;;;7.77;3.60;;;;;;;;;;10522973;28;20539;-81
2023/09/28 07:26:37;;;;;;;7.80;4.00;;;;;;;;;;10524636;28;20425;-80
2023/09/28 07:31:50;;;;;;;7.13;4.20;;;;;;;;;;10507796;28;20511;-81
2023/09/28 07:42:26;;;;;;;7.32;4.13;;;;;;;;;;10509122;28;20430;-81
2023/09/28 07:47:30;;;;;;;7.35;4.22;;;;;;;;;;10521167;28;20862;-82
2023/09/28 07:52:56;;;;;;;9.33;4.30;;;;;;;;;;10495869;28;20484;-81
2023/09/28 07:58:10;;;;;;;7.15;4.00;;;;;;;;;;10507310;28;20517;-81
2023/09/28 08:03:24;;;;;;;7.00;3.70;;;;;;;;;;10544745;28;20437;-82
2023/09/28 08:08:39;;;;;;;6.33;3.50;;;;;;;;;;10529646;28;20417;-81
2023/09/28 08:13:45;;;;;;;6.13;3.78;;;;;;;;;;10527946;28;20515;-82
2023/09/28 08:18:54;;;;;;;6.03;3.90;;;;;;;;;;10507937;28;20760;-82
2023/09/28 08:24:15;;;;;;;6.43;3.67;;;;;;;;;;10500283;28;20548;-80
2023/09/28 08:29:27;;;;;;;7.15;4.25;;;;;;;;;;10521052;28;20933;-81
2023/09/28 08:34:34;;;;;;;8.27;4.00;;;;;;;;;;10503362;28;20421;-80
2023/09/28 08:40:20;;;;;;;6.53;4.05;;;;;;;;;;10505839;28;20526;-81
2023/09/28 08:45:29;;;;;;;7.03;4.43;;;;;;;;;;10539265;27;20491;-80
2023/09/28 08:50:41;;;;;;;7.45;4.60;;;;;;;;;;10515783;28;20566;-79
2023/09/28 08:55:50;;;;;;;6.25;4.78;;;;;;;;;;10525539;28;20425;-81
2023/09/28 09:00:58;;;;;;;6.97;4.43;;;;;;;;;;10519019;28;20418;-80
2023/09/28 09:06:09;;;;;;;6.27;4.50;;;;;;;;;;10508363;28;20418;-81
2023/09/28 09:11:31;;;;;;;7.47;4.57;;;;;;;;;;10515882;28;20442;-80
2023/09/28 09:16:43;;;;;;;8.77;4.87;;;;;;;;;;10503494;28;20513;-80
2023/09/28 09:22:04;;;;;;;7.90;4.43;;;;;;;;;;10500800;28;20427;-80
2023/09/28 09:27:28;;;;;;;7.97;4.63;;;;;;;;;;10519346;28;20469;-81
2023/09/28 09:32:52;;;;;;;6.18;4.82;;;;;;;;;;10477195;28;20430;-81
2023/09/28 09:38:03;;;;;;;6.85;4.85;;;;;;;;;;10479132;28;21051;-80
2023/09/28 09:48:43;;;;;;;6.30;5.00;;;;;;;;;;10583940;27;20462;-81
2023/09/28 09:53:47;;;;;;;8.73;4.77;;;;;;;;;;10512036;28;20930;-80
2023/09/28 09:58:50;;;;;;;6.63;4.35;;;;;;;;;;10512028;28;20433;-80
2023/09/28 10:03:55;;;;;;;6.93;4.78;;;;;;;;;;10514135;28;20444;-80
2023/09/28 10:09:00;;;;;;;7.33;4.90;;;;;;;;;;10511099;28;20529;-81
2023/09/28 10:14:04;;;;;;;7.60;4.70;;;;;;;;;;10508615;28;20514;-80
2023/09/28 10:19:09;;;;;;;8.05;5.05;;;;;;;;;;10507751;28;20422;-81
2023/09/28 10:24:12;;;;;;;7.68;5.10;;;;;;;;;;10511743;28;20545;-81
2023/09/28 10:29:19;;;;;;;7.77;4.60;;;;;;;;;;10511350;28;20506;-81
2023/09/28 10:34:24;;;;;;;6.32;4.70;;;;;;;;;;10509575;28;20421;-80
2023/09/28 10:39:27;;;;;;;7.97;4.93;;;;;;;;;;10511540;28;20457;-81
2023/09/28 10:44:32;;;;;;;6.33;4.50;;;;;;;;;;10509260;28;20435;-81
2023/09/28 10:49:36;;;;;;;6.97;4.55;;;;;;;;;;10511749;28;20427;-80
2023/09/28 10:54:45;;;;;;;8.75;5.50;;;;;;;;;;10505282;28;20924;-80
2023/09/28 10:59:48;;;;;;;7.03;4.80;;;;;;;;;;10477123;28;20519;-81
2023/09/28 11:04:52;;;;;;;8.27;4.83;;;;;;;;;;10486247;28;20442;-81
2023/09/28 11:09:55;;;;;;;6.40;4.40;;;;;;;;;;10480563;28;20556;-81
2023/09/28 11:14:58;;;;;;;5.85;4.55;;;;;;;;;;10484498;28;20429;-81
2023/09/28 11:20:03;;;;;;;6.25;4.50;;;;;;;;;;10484520;28;20511;-81
2023/09/28 11:25:07;;;;;;;6.18;4.65;;;;;;;;;;10476597;28;20546;-80
2023/09/28 11:30:17;;;;;;;7.67;4.30;;;;;;;;;;10482155;28;20591;-81
2023/09/28 11:35:25;;;;;;;6.70;4.28;;;;;;;;;;10484508;28;20416;-82
2023/09/28 11:40:28;;;;;;;7.60;4.18;;;;;;;;;;10481034;28;20469;-81
2023/09/28 11:45:33;;;;;;;6.40;3.77;;;;;;;;;;10478658;28;20435;-80
2023/09/28 11:50:38;;;;;;;5.97;3.80;;;;;;;;;;10485623;28;20430;-81
2023/09/28 11:55:41;;;;;;;7.35;3.83;;;;;;;;;;10485553;28;20912;-80
2023/09/28 12:00:44;;;;;;;6.23;3.90;;;;;;;;;;10477526;28;20427;-81
2023/09/28 12:05:49;;;;;;;6.13;4.27;;;;;;;;;;10480743;28;20928;-81
2023/09/28 12:10:52;;;;;;;8.13;4.17;;;;;;;;;;10481233;28;20427;-81
2023/09/28 12:15:56;;;;;;;6.35;4.05;;;;;;;;;;10488097;28;20431;-81
2023/09/28 12:21:00;;;;;;;5.33;3.80;;;;;;;;;;10480504;28;20437;-81
2023/09/28 12:26:03;;;;;;;4.93;3.70;;;;;;;;;;10479315;28;20968;-82
2023/09/28 12:31:06;;;;;;;5.73;3.67;;;;;;;;;;10483405;28;21043;-79
2023/09/28 12:36:13;;;;;;;5.95;3.90;;;;;;;;;;10486543;28;20442;-80
2023/09/28 12:41:15;;;;;;;5.27;3.60;;;;;;;;;;10493981;28;20433;-79
2023/09/28 12:46:18;;;;;;;4.43;3.10;;;;;;;;;;10491397;28;20430;-79
2023/09/28 12:51:22;;;;;;;4.35;3.10;;;;;;;;;;10495950;28;20481;-81
2023/09/28 12:56:27;;;;;;;7.35;3.40;;;;;;;;;;10488892;28;20948;-80
2023/09/28 13:01:31;;;;;;;3.60;2.87;;;;;;;;;;10486448;28;20430;-79
2023/09/28 13:06:35;;;;;;;4.18;3.00;;;;;;;;;;10482980;28;20703;-81
2023/09/28 13:11:38;;;;;;;3.78;2.70;;;;;;;;;;10486488;28;20455;-80
2023/09/28 13:16:41;;;;;;;4.23;3.43;;;;;;;;;;10485866;28;20419;-81
2023/09/28 13:21:46;;;;;;;5.03;2.85;;;;;;;;;;10487879;28;20419;-80
2023/09/28 13:26:49;;;;;;;6.25;3.38;;;;;;;;;;10485119;28;20543;-81
2023/09/28 13:31:52;;;;;;;3.85;2.80;;;;;;;;;;10479207;28;20435;-81
2023/09/28 13:36:56;;;;;;;3.58;2.72;;;;;;;;;;10507407;28;20416;-81
2023/09/28 13:42:03;;;;;;;4.35;2.60;;;;;;;;;;10483535;28;20463;-81
2023/09/28 13:47:07;;;;;;;5.20;3.27;;;;;;;;;;10483726;28;20836;-81
2023/09/28 13:52:11;;;;;;;5.45;2.67;;;;;;;;;;10484105;28;20476;-79
2023/09/28 13:57:14;;;;;;;3.78;2.67;;;;;;;;;;10485944;28;20438;-81
2023/09/28 14:02:17;;;;;;;4.72;2.50;;;;;;;;;;10485067;28;20434;-80
2023/09/28 14:07:22;;;;;;;6.30;2.22;;;;;;;;;;10483104;28;20435;-80
2023/09/28 14:12:26;;;;;;;2.22;1.60;;;;;;;;;;10485185;28;20862;-81
2023/09/28 14:17:30;;;;;;;5.63;2.10;;;;;;;;;;10482446;28;20835;-80
2023/09/28 14:22:44;;;;;;;5.13;2.03;;;;;;;;;;10479157;28;20426;-82
2023/09/28 14:27:47;;;;;;;4.13;2.10;;;;;;;;;;10481612;28;20507;-80
2023/09/28 14:32:51;;;;;;;4.78;2.40;;;;;;;;;;10484093;28;20423;-81
2023/09/28 14:37:55;;;;;;;5.13;2.40;;;;;;;;;;10487063;28;20427;-81
2023/09/28 14:43:01;;;;;;;3.40;2.13;;;;;;;;;;10491571;28;20429;-80
2023/09/28 14:48:04;;;;;;;3.37;2.00;;;;;;;;;;10487140;28;20796;-81
2023/09/28 14:53:10;;;;;;;4.20;2.08;;;;;;;;;;10483707;28;20465;-80
2023/09/28 14:58:14;;;;;;;4.03;2.08;;;;;;;;;;10486147;28;20827;-80
2023/09/28 15:03:17;;;;;;;4.10;2.17;;;;;;;;;;10490294;28;20459;-78
2023/09/28 15:08:22;;;;;;;4.97;2.40;;;;;;;;;;10487827;28;20416;-81
2023/09/28 15:13:25;;;;;;;5.85;2.67;;;;;;;;;;10488486;28;20553;-80
2023/09/28 15:18:28;;;;;;;3.83;2.40;;;;;;;;;;10476984;28;21195;-81
2023/09/28 15:23:32;;;;;;;6.20;2.60;;;;;;;;;;10514944;28;20431;-80
2023/09/28 15:28:36;;;;;;;3.88;2.40;;;;;;;;;;10480302;28;20508;-82
2023/09/28 15:33:39;;;;;;;4.35;2.53;;;;;;;;;;10476066;28;20450;-78
2023/09/28 15:38:43;;;;;;;4.53;2.55;;;;;;;;;;10478234;28;21086;-79
2023/09/28 15:43:46;;;;;;;5.15;2.40;;;;;;;;;;10478126;28;20415;-81
2023/09/28 15:48:48;;;;;;;3.63;2.35;;;;;;;;;;10487566;28;20420;-81
2023/09/28 15:53:52;;;;;;;5.00;2.60;;;;;;;;;;10480177;28;20451;-78
2023/09/28 15:58:55;;;;;;;4.72;2.40;;;;;;;;;;10476805;28;20447;-78
2023/09/28 16:03:58;;;;;;;5.80;2.45;;;;;;;;;;10474618;28;20435;-78
2023/09/28 16:09:03;;;;;;;6.47;3.00;;;;;;;;;;10476280;28;20788;-79
2023/09/28 16:14:06;;;;;;;5.30;2.67;;;;;;;;;;10481608;28;20443;-79
2023/09/28 16:19:09;;;;;;;5.87;3.03;;;;;;;;;;10519812;28;20843;-78
2023/09/28 16:24:13;;;;;;;5.10;2.87;;;;;;;;;;10481503;28;20457;-79
2023/09/28 16:29:16;;;;;;;6.43;2.90;;;;;;;;;;10486715;28;20424;-79
2023/09/28 16:34:18;;;;;;;7.43;3.00;;;;;;;;;;10512525;28;20417;-80
2023/09/28 16:39:22;;;;;;;6.55;3.00;;;;;;;;;;10482314;28;20430;-79
2023/09/28 16:44:25;;;;;;;8.27;3.20;;;;;;;;;;10484277;28;20478;-79
2023/09/28 16:49:28;;;;;;;8.03;3.53;;;;;;;;;;10482681;28;20992;-79
2023/09/28 16:54:32;;;;;;;8.85;3.67;;;;;;;;;;10482593;28;20477;-78
2023/09/28 16:59:34;;;;;;;6.28;2.95;;;;;;;;;;10481102;28;20442;-79
2023/09/28 17:04:37;;;;;;;9.25;3.28;;;;;;;;;;10477270;28;20521;-78
2023/09/28 17:09:41;;;;;;;6.90;3.58;;;;;;;;;;10476072;28;20427;-78
2023/09/28 17:14:44;;;;;;;8.90;4.38;;;;;;;;;;10477551;28;20965;-78
2023/09/28 17:19:47;;;;;;;9.15;3.72;;;;;;;;;;10478776;28;20565;-79
2023/09/28 17:24:51;;;;;;;8.70;3.80;;;;;;;;;;10477654;28;20431;-79
2023/09/28 17:29:54;;;;;;;7.00;3.53;;;;;;;;;;10484035;28;20435;-79
2023/09/28 17:34:57;;;;;;;9.10;4.05;;;;;;;;;;10478401;28;20496;-79
2023/09/28 17:40:03;;;;;;;9.40;4.13;;;;;;;;;;10478296;28;20827;-78
2023/09/28 17:45:07;;;;;;;11.30;5.30;;;;;;;;;;10482600;28;20776;-79
2023/09/28 17:50:10;;;;;;;12.90;4.97;;;;;;;;;;10475503;28;20433;-79
2023/09/28 17:55:16;;;;;;;10.48;4.63;;;;;;;;;;10482828;28;21156;-78
2023/09/28 18:00:20;;;;;;;11.40;4.70;;;;;;;;;;10478196;28;20420;-78
2023/09/28 18:05:23;;;;;;;9.73;4.50;;;;;;;;;;10478258;28;20928;-78
2023/09/28 18:10:27;;;;;;;10.30;4.80;;;;;;;;;;10484093;28;20442;-78
2023/09/28 18:15:30;;;;;;;10.70;5.15;;;;;;;;;;10487663;28;20409;-77
2023/09/28 18:20:32;;;;;;;11.05;4.88;;;;;;;;;;10485888;28;20521;-79
2023/09/28 18:25:37;;;;;;;12.02;5.72;;;;;;;;;;10487327;28;20438;-78
2023/09/28 18:30:40;;;;;;;10.90;5.82;;;;;;;;;;10497415;28;20509;-79
2023/09/28 18:35:42;;;;;;;11.25;5.57;;;;;;;;;;10485759;28;20435;-79
2023/09/28 18:40:48;;;;;;;15.68;6.13;;;;;;;;;;10485613;28;20419;-80
2023/09/28 18:45:52;;;;;;;13.35;5.93;;;;;;;;;;10490836;28;20430;-80
2023/09/28 18:50:55;;;;;;;17.13;8.13;;;;;;;;;;10490018;28;20460;-78
2023/09/28 18:56:05;;;;;;;11.70;6.17;;;;;;;;;;10485496;28;20951;-80
2023/09/28 19:01:12;;;;;;;18.95;8.90;;;;;;;;;;10485314;28;20431;-80
2023/09/28 19:06:16;;;;;;;12.73;6.13;;;;;;;;;;10487179;28;20434;-78
2023/09/28 19:11:21;;;;;;;13.90;6.50;;;;;;;;;;10480355;28;20683;-78
2023/09/28 19:16:23;;;;;;;19.98;9.63;;;;;;;;;;10478179;28;20911;-81
2023/09/28 19:21:26;;;;;;;15.67;7.20;;;;;;;;;;10489048;28;20535;-79
2023/09/28 19:26:33;;;;;;;30.40;14.52;;;;;;;;;;10483667;28;20835;-79
2023/09/28 19:31:36;;;;;;;22.52;10.02;;;;;;;;;;10482115;28;20561;-79
2023/09/28 19:36:39;;;;;;;18.95;8.93;;;;;;;;;;10487258;28;20483;-81
2023/09/28 19:41:43;;;;;;;16.23;7.43;;;;;;;;;;10485456;28;20457;-81
2023/09/28 19:46:46;;;;;;;20.08;8.38;;;;;;;;;;10481878;28;20437;-81
2023/09/28 19:51:52;;;;;;;18.57;8.00;;;;;;;;;;10482555;28;20405;-79
2023/09/28 19:56:56;;;;;;;21.63;9.57;;;;;;;;;;10493977;28;20443;-82
2023/09/28 20:01:59;;;;;;;15.75;7.90;;;;;;;;;;10488183;28;20415;-80
2023/09/28 20:07:02;;;;;;;14.50;6.55;;;;;;;;;;10485353;28;20437;-79
2023/09/28 20:12:08;;;;;;;13.75;7.20;;;;;;;;;;10482886;28;20444;-80
2023/09/28 20:17:10;;;;;;;12.63;6.60;;;;;;;;;;10514775;27;20511;-80
2023/09/28 20:22:13;;;;;;;14.07;7.60;;;;;;;;;;10476734;28;20527;-80
2023/09/28 20:27:19;;;;;;;15.10;6.50;;;;;;;;;;10489076;28;20431;-80
2023/09/28 20:32:21;;;;;;;16.38;6.75;;;;;;;;;;10485282;28;20789;-79
2023/09/28 20:37:24;;;;;;;16.97;7.10;;;;;;;;;;10482907;28;20596;-79
2023/09/28 20:42:31;;;;;;;14.75;7.15;;;;;;;;;;10480408;28;20462;-78
2023/09/28 20:47:33;;;;;;;14.35;6.97;;;;;;;;;;10485519;28;20553;-78
2023/09/28 20:52:39;;;;;;;14.93;7.27;;;;;;;;;;10489240;28;20411;-78
2023/09/28 20:57:44;;;;;;;12.97;6.30;;;;;;;;;;10480536;28;20541;-78
2023/09/28 21:02:47;;;;;;;13.93;6.45;;;;;;;;;;10478060;28;20533;-78
2023/09/28 21:07:50;;;;;;;12.98;6.53;;;;;;;;;;10484798;28;20452;-78
2023/09/28 21:12:54;;;;;;;14.67;7.00;;;;;;;;;;10488716;28;20428;-78
2023/09/28 21:17:57;;;;;;;17.47;7.17;;;;;;;;;;10484955;28;20519;-78
2023/09/28 21:23:00;;;;;;;16.23;7.38;;;;;;;;;;10483332;28;20431;-78
2023/09/28 21:28:04;;;;;;;12.45;6.70;;;;;;;;;;10478523;28;20573;-79
2023/09/28 21:33:07;;;;;;;14.90;7.00;;;;;;;;;;10473907;28;20926;-79
2023/09/28 21:38:09;;;;;;;13.68;6.95;;;;;;;;;;10471963;28;20420;-78
2023/09/28 21:43:14;;;;;;;12.73;6.73;;;;;;;;;;10477534;28;20496;-78
2023/09/28 21:48:17;;;;;;;14.60;6.88;;;;;;;;;;10478187;28;20430;-79
2023/09/28 21:53:20;;;;;;;15.23;6.60;;;;;;;;;;10471584;28;20415;-79
2023/09/28 21:58:25;;;;;;;14.32;7.07;;;;;;;;;;10473684;28;20526;-78
2023/09/28 22:03:28;;;;;;;13.07;6.90;;;;;;;;;;10472789;28;20619;-77
2023/09/28 22:08:31;;;;;;;13.40;5.93;;;;;;;;;;10472173;28;20779;-79
2023/09/28 22:13:35;;;;;;;14.10;5.63;;;;;;;;;;10473718;28;20741;-79
2023/09/28 22:18:38;;;;;;;11.50;5.07;;;;;;;;;;10471183;28;20969;-78
2023/09/28 22:23:41;;;;;;;8.90;4.80;;;;;;;;;;10467974;28;20438;-78
2023/09/28 22:28:45;;;;;;;11.38;5.22;;;;;;;;;;10482614;28;20426;-78
2023/09/28 22:33:47;;;;;;;9.50;4.85;;;;;;;;;;10481787;28;20461;-79
2023/09/28 22:38:50;;;;;;;8.25;3.92;;;;;;;;;;10474046;28;20528;-79
2023/09/28 22:43:54;;;;;;;7.70;3.93;;;;;;;;;;10485842;28;20500;-80
2023/09/28 22:48:57;;;;;;;8.47;3.70;;;;;;;;;;10481492;28;20464;-78
2023/09/28 22:54:00;;;;;;;9.73;4.10;;;;;;;;;;10488301;28;20424;-79
2023/09/28 22:59:04;;;;;;;11.35;4.10;;;;;;;;;;10518346;28;20438;-79
2023/09/28 23:04:06;;;;;;;8.77;4.23;;;;;;;;;;10485138;28;20417;-78
2023/09/28 23:09:10;;;;;;;7.00;3.90;;;;;;;;;;10484972;28;21027;-78
2023/09/28 23:14:14;;;;;;;9.82;4.20;;;;;;;;;;10477989;28;20420;-78
2023/09/28 23:19:17;;;;;;;7.47;3.47;;;;;;;;;;10485887;28;20968;-78
2023/09/28 23:24:22;;;;;;;9.45;3.88;;;;;;;;;;10483496;28;20570;-78
2023/09/28 23:29:26;;;;;;;8.38;3.50;;;;;;;;;;10484273;28;20522;-77
2023/09/28 23:34:29;;;;;;;7.13;3.78;;;;;;;;;;10481055;28;20939;-78
2023/09/28 23:39:32;;;;;;;10.47;4.40;;;;;;;;;;10485907;28;20498;-80
2023/09/28 23:44:36;;;;;;;9.20;4.77;;;;;;;;;;10481593;28;20499;-80
2023/09/28 23:49:39;;;;;;;9.88;4.82;;;;;;;;;;10487180;28;20430;-79
2023/09/28 23:54:42;;;;;;;9.13;4.73;;;;;;;;;;10477316;28;20474;-79
2023/09/28 23:59:46;;;;;;;9.10;4.38;;;;;;;;;;10486526;28;20510;-78
